sensor_id;sensor_type;location;lat;lon;timestamp;P1;durP1;ratioP1;P2;durP2;ratioP2
35990;SDS011;22064;42.672;23.282;2023-10-09T00:01:46;7.63;;;2.55;;
35990;SDS011;22064;42.672;23.282;2023-10-09T00:04:33;8.10;;;3.17;;
35990;SDS011;22064;42.672;23.282;2023-10-09T00:07:22;6.97;;;2.72;;
35990;SDS011;22064;42.672;23.282;2023-10-09T00:10:09;10.95;;;3.45;;
35990;SDS011;22064;42.672;23.282;2023-10-09T00:12:59;7.13;;;2.53;;
35990;SDS011;22064;42.672;23.282;2023-10-09T00:15:46;5.38;;;2.55;;
35990;SDS011;22064;42.672;23.282;2023-10-09T00:18:40;7.05;;;2.22;;
35990;SDS011;22064;42.672;23.282;2023-10-09T00:21:33;7.57;;;2.38;;
35990;SDS011;22064;42.672;23.282;2023-10-09T00:24:21;7.60;;;2.55;;
35990;SDS011;22064;42.672;23.282;2023-10-09T00:27:11;11.50;;;2.72;;
35990;SDS011;22064;42.672;23.282;2023-10-09T00:29:59;10.73;;;2.42;;
35990;SDS011;22064;42.672;23.282;2023-10-09T00:32:46;8.27;;;2.10;;
35990;SDS011;22064;42.672;23.282;2023-10-09T00:35:46;12.52;;;2.70;;
35990;SDS011;22064;42.672;23.282;2023-10-09T00:38:40;7.97;;;2.40;;
35990;SDS011;22064;42.672;23.282;2023-10-09T00:41:37;4.95;;;2.08;;
35990;SDS011;22064;42.672;23.282;2023-10-09T00:44:27;8.50;;;1.98;;
35990;SDS011;22064;42.672;23.282;2023-10-09T00:47:25;10.07;;;2.80;;
35990;SDS011;22064;42.672;23.282;2023-10-09T00:50:20;8.70;;;2.65;;
35990;SDS011;22064;42.672;23.282;2023-10-09T00:53:08;7.97;;;2.47;;
35990;SDS011;22064;42.672;23.282;2023-10-09T00:56:01;7.32;;;2.63;;
35990;SDS011;22064;42.672;23.282;2023-10-09T00:59:06;7.32;;;2.05;;
35990;SDS011;22064;42.672;23.282;2023-10-09T01:02:07;6.45;;;1.90;;
35990;SDS011;22064;42.672;23.282;2023-10-09T01:04:55;8.90;;;2.10;;
35990;SDS011;22064;42.672;23.282;2023-10-09T01:07:43;7.40;;;2.43;;
35990;SDS011;22064;42.672;23.282;2023-10-09T01:10:43;6.60;;;2.47;;
35990;SDS011;22064;42.672;23.282;2023-10-09T01:13:40;3.72;;;2.10;;
35990;SDS011;22064;42.672;23.282;2023-10-09T01:16:40;8.70;;;2.40;;
35990;SDS011;22064;42.672;23.282;2023-10-09T01:19:32;6.07;;;1.88;;
35990;SDS011;22064;42.672;23.282;2023-10-09T01:22:20;5.50;;;1.90;;
35990;SDS011;22064;42.672;23.282;2023-10-09T01:25:09;8.25;;;2.38;;
35990;SDS011;22064;42.672;23.282;2023-10-09T01:28:02;5.57;;;2.08;;
35990;SDS011;22064;42.672;23.282;2023-10-09T01:30:49;5.85;;;1.95;;
35990;SDS011;22064;42.672;23.282;2023-10-09T01:33:43;6.60;;;2.35;;
35990;SDS011;22064;42.672;23.282;2023-10-09T01:36:36;5.78;;;2.15;;
35990;SDS011;22064;42.672;23.282;2023-10-09T01:39:25;5.88;;;2.05;;
35990;SDS011;22064;42.672;23.282;2023-10-09T01:42:26;7.82;;;2.33;;
35990;SDS011;22064;42.672;23.282;2023-10-09T01:45:16;5.75;;;1.80;;
35990;SDS011;22064;42.672;23.282;2023-10-09T01:48:23;5.47;;;2.20;;
35990;SDS011;22064;42.672;23.282;2023-10-09T01:51:14;5.20;;;2.30;;
35990;SDS011;22064;42.672;23.282;2023-10-09T01:54:09;3.75;;;2.22;;
35990;SDS011;22064;42.672;23.282;2023-10-09T01:57:06;5.63;;;2.60;;
35990;SDS011;22064;42.672;23.282;2023-10-09T01:59:59;4.32;;;2.33;;
35990;SDS011;22064;42.672;23.282;2023-10-09T02:02:46;3.88;;;2.08;;
35990;SDS011;22064;42.672;23.282;2023-10-09T02:05:36;7.28;;;2.30;;
35990;SDS011;22064;42.672;23.282;2023-10-09T02:08:23;6.95;;;2.50;;
35990;SDS011;22064;42.672;23.282;2023-10-09T02:11:13;6.93;;;2.45;;
35990;SDS011;22064;42.672;23.282;2023-10-09T02:14:00;5.40;;;2.85;;
35990;SDS011;22064;42.672;23.282;2023-10-09T02:16:49;6.03;;;2.75;;
35990;SDS011;22064;42.672;23.282;2023-10-09T02:19:48;6.60;;;2.28;;
35990;SDS011;22064;42.672;23.282;2023-10-09T02:22:39;3.05;;;2.20;;
35990;SDS011;22064;42.672;23.282;2023-10-09T02:25:27;7.45;;;2.58;;
35990;SDS011;22064;42.672;23.282;2023-10-09T02:28:20;7.65;;;2.60;;
35990;SDS011;22064;42.672;23.282;2023-10-09T02:31:11;5.32;;;2.15;;
35990;SDS011;22064;42.672;23.282;2023-10-09T02:33:58;8.00;;;2.40;;
35990;SDS011;22064;42.672;23.282;2023-10-09T02:36:50;6.10;;;2.05;;
35990;SDS011;22064;42.672;23.282;2023-10-09T02:39:43;5.00;;;1.80;;
35990;SDS011;22064;42.672;23.282;2023-10-09T02:42:34;7.43;;;2.15;;
35990;SDS011;22064;42.672;23.282;2023-10-09T02:45:20;5.07;;;2.28;;
35990;SDS011;22064;42.672;23.282;2023-10-09T02:48:14;6.25;;;2.20;;
35990;SDS011;22064;42.672;23.282;2023-10-09T02:51:02;5.20;;;1.75;;
35990;SDS011;22064;42.672;23.282;2023-10-09T02:53:48;5.80;;;2.10;;
35990;SDS011;22064;42.672;23.282;2023-10-09T02:56:36;5.47;;;2.10;;
35990;SDS011;22064;42.672;23.282;2023-10-09T02:59:29;4.03;;;1.65;;
35990;SDS011;22064;42.672;23.282;2023-10-09T03:02:19;3.95;;;1.80;;
35990;SDS011;22064;42.672;23.282;2023-10-09T03:05:07;7.80;;;1.90;;
35990;SDS011;22064;42.672;23.282;2023-10-09T03:07:58;4.32;;;1.83;;
35990;SDS011;22064;42.672;23.282;2023-10-09T03:10:45;6.70;;;1.80;;
35990;SDS011;22064;42.672;23.282;2023-10-09T03:13:33;4.20;;;1.90;;
35990;SDS011;22064;42.672;23.282;2023-10-09T03:16:24;3.17;;;1.73;;
35990;SDS011;22064;42.672;23.282;2023-10-09T03:19:13;4.35;;;1.85;;
35990;SDS011;22064;42.672;23.282;2023-10-09T03:22:00;4.35;;;1.88;;
35990;SDS011;22064;42.672;23.282;2023-10-09T03:24:49;8.88;;;2.10;;
35990;SDS011;22064;42.672;23.282;2023-10-09T03:27:39;3.70;;;1.50;;
35990;SDS011;22064;42.672;23.282;2023-10-09T03:30:33;6.20;;;1.42;;
35990;SDS011;22064;42.672;23.282;2023-10-09T03:33:22;3.73;;;1.60;;
35990;SDS011;22064;42.672;23.282;2023-10-09T03:36:09;3.67;;;1.83;;
35990;SDS011;22064;42.672;23.282;2023-10-09T03:38:56;5.68;;;1.85;;
35990;SDS011;22064;42.672;23.282;2023-10-09T03:41:46;4.60;;;1.77;;
35990;SDS011;22064;42.672;23.282;2023-10-09T03:44:34;4.68;;;1.80;;
35990;SDS011;22064;42.672;23.282;2023-10-09T03:47:28;3.88;;;1.45;;
35990;SDS011;22064;42.672;23.282;2023-10-09T03:50:15;5.03;;;1.58;;
35990;SDS011;22064;42.672;23.282;2023-10-09T03:53:22;3.15;;;1.42;;
35990;SDS011;22064;42.672;23.282;2023-10-09T03:56:11;2.85;;;1.50;;
35990;SDS011;22064;42.672;23.282;2023-10-09T03:59:02;5.28;;;1.17;;
35990;SDS011;22064;42.672;23.282;2023-10-09T04:01:56;2.53;;;1.17;;
35990;SDS011;22064;42.672;23.282;2023-10-09T04:04:45;7.75;;;1.42;;
35990;SDS011;22064;42.672;23.282;2023-10-09T04:07:33;4.57;;;1.55;;
35990;SDS011;22064;42.672;23.282;2023-10-09T04:10:21;12.68;;;2.40;;
35990;SDS011;22064;42.672;23.282;2023-10-09T04:13:34;3.70;;;1.17;;
35990;SDS011;22064;42.672;23.282;2023-10-09T04:16:21;4.75;;;2.17;;
35990;SDS011;22064;42.672;23.282;2023-10-09T04:19:14;2.42;;;1.30;;
35990;SDS011;22064;42.672;23.282;2023-10-09T04:22:06;3.28;;;1.40;;
35990;SDS011;22064;42.672;23.282;2023-10-09T04:25:13;5.32;;;1.55;;
35990;SDS011;22064;42.672;23.282;2023-10-09T04:28:13;11.25;;;2.47;;
35990;SDS011;22064;42.672;23.282;2023-10-09T04:31:03;3.75;;;1.40;;
35990;SDS011;22064;42.672;23.282;2023-10-09T04:33:52;2.42;;;1.60;;
35990;SDS011;22064;42.672;23.282;2023-10-09T04:36:59;3.50;;;1.75;;
35990;SDS011;22064;42.672;23.282;2023-10-09T04:40:01;2.92;;;1.45;;
35990;SDS011;22064;42.672;23.282;2023-10-09T04:42:57;5.93;;;1.90;;
35990;SDS011;22064;42.672;23.282;2023-10-09T04:45:44;6.43;;;1.73;;
35990;SDS011;22064;42.672;23.282;2023-10-09T04:48:49;4.78;;;1.50;;
35990;SDS011;22064;42.672;23.282;2023-10-09T04:51:38;5.80;;;2.28;;
35990;SDS011;22064;42.672;23.282;2023-10-09T04:54:45;4.22;;;1.58;;
35990;SDS011;22064;42.672;23.282;2023-10-09T04:57:52;2.65;;;1.50;;
35990;SDS011;22064;42.672;23.282;2023-10-09T05:00:49;3.88;;;1.20;;
35990;SDS011;22064;42.672;23.282;2023-10-09T05:03:51;3.83;;;1.60;;
35990;SDS011;22064;42.672;23.282;2023-10-09T05:06:44;2.42;;;1.35;;
35990;SDS011;22064;42.672;23.282;2023-10-09T05:09:41;4.13;;;1.30;;
35990;SDS011;22064;42.672;23.282;2023-10-09T05:12:42;7.18;;;1.70;;
35990;SDS011;22064;42.672;23.282;2023-10-09T05:15:43;6.55;;;1.65;;
35990;SDS011;22064;42.672;23.282;2023-10-09T05:18:33;3.50;;;1.58;;
35990;SDS011;22064;42.672;23.282;2023-10-09T05:21:24;2.25;;;1.42;;
35990;SDS011;22064;42.672;23.282;2023-10-09T05:24:17;2.17;;;1.10;;
35990;SDS011;22064;42.672;23.282;2023-10-09T05:27:07;4.00;;;1.63;;
35990;SDS011;22064;42.672;23.282;2023-10-09T05:30:11;5.40;;;1.42;;
35990;SDS011;22064;42.672;23.282;2023-10-09T05:33:10;9.30;;;1.80;;
35990;SDS011;22064;42.672;23.282;2023-10-09T05:36:23;4.50;;;1.67;;
35990;SDS011;22064;42.672;23.282;2023-10-09T05:39:12;5.37;;;1.47;;
35990;SDS011;22064;42.672;23.282;2023-10-09T05:42:29;5.45;;;1.48;;
35990;SDS011;22064;42.672;23.282;2023-10-09T05:45:24;3.05;;;1.40;;
35990;SDS011;22064;42.672;23.282;2023-10-09T05:48:37;6.03;;;1.60;;
35990;SDS011;22064;42.672;23.282;2023-10-09T05:51:24;3.92;;;1.40;;
35990;SDS011;22064;42.672;23.282;2023-10-09T05:54:31;6.05;;;1.70;;
35990;SDS011;22064;42.672;23.282;2023-10-09T05:57:42;5.10;;;1.60;;
35990;SDS011;22064;42.672;23.282;2023-10-09T06:00:47;6.43;;;1.70;;
35990;SDS011;22064;42.672;23.282;2023-10-09T06:04:13;3.65;;;1.38;;
35990;SDS011;22064;42.672;23.282;2023-10-09T06:07:04;3.25;;;1.52;;
35990;SDS011;22064;42.672;23.282;2023-10-09T06:09:59;6.03;;;1.40;;
35990;SDS011;22064;42.672;23.282;2023-10-09T06:12:57;2.78;;;1.42;;
35990;SDS011;22064;42.672;23.282;2023-10-09T06:15:50;1.60;;;1.02;;
35990;SDS011;22064;42.672;23.282;2023-10-09T06:18:36;1.38;;;1.27;;
35990;SDS011;22064;42.672;23.282;2023-10-09T06:21:27;9.80;;;1.70;;
35990;SDS011;22064;42.672;23.282;2023-10-09T06:24:34;3.97;;;1.45;;
35990;SDS011;22064;42.672;23.282;2023-10-09T06:27:43;7.00;;;1.75;;
35990;SDS011;22064;42.672;23.282;2023-10-09T06:30:34;3.05;;;1.10;;
35990;SDS011;22064;42.672;23.282;2023-10-09T06:33:23;3.72;;;1.30;;
35990;SDS011;22064;42.672;23.282;2023-10-09T06:36:16;5.80;;;1.27;;
35990;SDS011;22064;42.672;23.282;2023-10-09T06:39:04;4.40;;;1.58;;
35990;SDS011;22064;42.672;23.282;2023-10-09T06:42:10;4.13;;;1.33;;
35990;SDS011;22064;42.672;23.282;2023-10-09T06:45:17;4.90;;;1.52;;
35990;SDS011;22064;42.672;23.282;2023-10-09T06:48:03;6.07;;;1.45;;
35990;SDS011;22064;42.672;23.282;2023-10-09T06:51:16;3.78;;;1.70;;
35990;SDS011;22064;42.672;23.282;2023-10-09T06:54:28;1.63;;;1.00;;
35990;SDS011;22064;42.672;23.282;2023-10-09T06:57:23;6.25;;;1.45;;
35990;SDS011;22064;42.672;23.282;2023-10-09T07:00:29;4.22;;;1.48;;
35990;SDS011;22064;42.672;23.282;2023-10-09T07:03:35;2.72;;;1.70;;
35990;SDS011;22064;42.672;23.282;2023-10-09T07:06:23;1.83;;;1.50;;
35990;SDS011;22064;42.672;23.282;2023-10-09T07:09:12;1.95;;;1.50;;
35990;SDS011;22064;42.672;23.282;2023-10-09T07:12:00;2.15;;;1.60;;
35990;SDS011;22064;42.672;23.282;2023-10-09T07:14:50;3.55;;;1.58;;
35990;SDS011;22064;42.672;23.282;2023-10-09T07:17:36;4.20;;;1.40;;
35990;SDS011;22064;42.672;23.282;2023-10-09T07:20:23;4.07;;;1.30;;
35990;SDS011;22064;42.672;23.282;2023-10-09T07:23:25;3.20;;;1.13;;
35990;SDS011;22064;42.672;23.282;2023-10-09T07:26:18;2.13;;;1.48;;
35990;SDS011;22064;42.672;23.282;2023-10-09T07:29:05;5.50;;;1.50;;
35990;SDS011;22064;42.672;23.282;2023-10-09T07:32:08;2.88;;;1.40;;
35990;SDS011;22064;42.672;23.282;2023-10-09T07:34:58;1.63;;;1.40;;
35990;SDS011;22064;42.672;23.282;2023-10-09T07:37:47;3.40;;;1.25;;
35990;SDS011;22064;42.672;23.282;2023-10-09T07:40:37;7.95;;;2.50;;
35990;SDS011;22064;42.672;23.282;2023-10-09T07:43:43;6.85;;;1.65;;
35990;SDS011;22064;42.672;23.282;2023-10-09T07:46:30;3.72;;;1.30;;
35990;SDS011;22064;42.672;23.282;2023-10-09T07:49:36;3.33;;;1.40;;
35990;SDS011;22064;42.672;23.282;2023-10-09T07:52:23;5.38;;;1.50;;
35990;SDS011;22064;42.672;23.282;2023-10-09T07:55:13;5.25;;;1.55;;
35990;SDS011;22064;42.672;23.282;2023-10-09T08:00:59;3.83;;;1.58;;
35990;SDS011;22064;42.672;23.282;2023-10-09T08:04:02;3.10;;;1.40;;
35990;SDS011;22064;42.672;23.282;2023-10-09T08:06:57;2.35;;;1.45;;
35990;SDS011;22064;42.672;23.282;2023-10-09T08:09:45;3.33;;;1.73;;
35990;SDS011;22064;42.672;23.282;2023-10-09T08:12:59;2.72;;;1.35;;
35990;SDS011;22064;42.672;23.282;2023-10-09T08:15:45;5.53;;;1.30;;
35990;SDS011;22064;42.672;23.282;2023-10-09T08:18:39;3.67;;;1.42;;
35990;SDS011;22064;42.672;23.282;2023-10-09T08:21:31;3.00;;;1.60;;
35990;SDS011;22064;42.672;23.282;2023-10-09T08:24:52;2.97;;;1.20;;
35990;SDS011;22064;42.672;23.282;2023-10-09T08:27:42;3.00;;;1.70;;
35990;SDS011;22064;42.672;23.282;2023-10-09T08:30:42;3.42;;;1.52;;
35990;SDS011;22064;42.672;23.282;2023-10-09T08:33:40;1.88;;;1.17;;
35990;SDS011;22064;42.672;23.282;2023-10-09T08:36:28;4.40;;;1.85;;
35990;SDS011;22064;42.672;23.282;2023-10-09T08:39:23;1.88;;;1.45;;
35990;SDS011;22064;42.672;23.282;2023-10-09T08:42:17;3.15;;;1.27;;
35990;SDS011;22064;42.672;23.282;2023-10-09T08:45:04;1.70;;;1.20;;
35990;SDS011;22064;42.672;23.282;2023-10-09T08:47:58;3.78;;;1.40;;
35990;SDS011;22064;42.672;23.282;2023-10-09T08:50:52;4.90;;;1.60;;
35990;SDS011;22064;42.672;23.282;2023-10-09T08:53:42;2.00;;;1.10;;
35990;SDS011;22064;42.672;23.282;2023-10-09T08:56:33;3.08;;;1.00;;
35990;SDS011;22064;42.672;23.282;2023-10-09T08:59:23;1.23;;;1.10;;
35990;SDS011;22064;42.672;23.282;2023-10-09T09:02:10;1.98;;;1.10;;
35990;SDS011;22064;42.672;23.282;2023-10-09T09:04:57;3.55;;;1.17;;
35990;SDS011;22064;42.672;23.282;2023-10-09T09:07:45;2.70;;;1.10;;
35990;SDS011;22064;42.672;23.282;2023-10-09T09:10:31;2.95;;;1.00;;
35990;SDS011;22064;42.672;23.282;2023-10-09T09:13:30;3.22;;;1.40;;
35990;SDS011;22064;42.672;23.282;2023-10-09T09:16:21;3.80;;;1.42;;
35990;SDS011;22064;42.672;23.282;2023-10-09T09:19:16;1.70;;;1.15;;
35990;SDS011;22064;42.672;23.282;2023-10-09T09:24:59;2.72;;;1.10;;
35990;SDS011;22064;42.672;23.282;2023-10-09T09:27:55;3.28;;;1.48;;
35990;SDS011;22064;42.672;23.282;2023-10-09T09:30:43;2.72;;;1.50;;
35990;SDS011;22064;42.672;23.282;2023-10-09T09:33:31;1.63;;;1.40;;
35990;SDS011;22064;42.672;23.282;2023-10-09T09:36:27;3.72;;;1.40;;
35990;SDS011;22064;42.672;23.282;2023-10-09T09:39:18;2.92;;;1.40;;
35990;SDS011;22064;42.672;23.282;2023-10-09T09:42:05;3.08;;;1.42;;
35990;SDS011;22064;42.672;23.282;2023-10-09T09:45:05;3.00;;;1.60;;
35990;SDS011;22064;42.672;23.282;2023-10-09T09:47:53;2.13;;;1.27;;
35990;SDS011;22064;42.672;23.282;2023-10-09T09:50:45;3.60;;;1.33;;
35990;SDS011;22064;42.672;23.282;2023-10-09T09:53:35;2.13;;;1.20;;
35990;SDS011;22064;42.672;23.282;2023-10-09T09:56:24;4.63;;;1.65;;
35990;SDS011;22064;42.672;23.282;2023-10-09T09:59:12;4.97;;;1.65;;
35990;SDS011;22064;42.672;23.282;2023-10-09T10:02:10;2.22;;;1.10;;
35990;SDS011;22064;42.672;23.282;2023-10-09T10:05:07;2.85;;;1.50;;
35990;SDS011;22064;42.672;23.282;2023-10-09T10:08:00;3.17;;;1.40;;
35990;SDS011;22064;42.672;23.282;2023-10-09T10:10:52;4.68;;;1.25;;
35990;SDS011;22064;42.672;23.282;2023-10-09T10:16:28;5.13;;;1.42;;
35990;SDS011;22064;42.672;23.282;2023-10-09T10:19:20;2.40;;;1.30;;
35990;SDS011;22064;42.672;23.282;2023-10-09T10:22:23;6.63;;;1.70;;
35990;SDS011;22064;42.672;23.282;2023-10-09T10:28:23;2.97;;;1.60;;
35990;SDS011;22064;42.672;23.282;2023-10-09T10:34:56;3.08;;;1.30;;
35990;SDS011;22064;42.672;23.282;2023-10-09T10:37:44;1.42;;;1.23;;
35990;SDS011;22064;42.672;23.282;2023-10-09T10:40:41;3.05;;;1.45;;
35990;SDS011;22064;42.672;23.282;2023-10-09T10:43:32;0.95;;;0.93;;
35990;SDS011;22064;42.672;23.282;2023-10-09T10:46:35;5.55;;;1.40;;
35990;SDS011;22064;42.672;23.282;2023-10-09T10:49:32;4.60;;;1.50;;
35990;SDS011;22064;42.672;23.282;2023-10-09T10:52:25;4.03;;;1.70;;
35990;SDS011;22064;42.672;23.282;2023-10-09T10:55:28;4.90;;;1.13;;
35990;SDS011;22064;42.672;23.282;2023-10-09T10:58:17;3.50;;;1.33;;
35990;SDS011;22064;42.672;23.282;2023-10-09T11:01:15;2.35;;;1.60;;
35990;SDS011;22064;42.672;23.282;2023-10-09T11:04:10;2.38;;;1.25;;
35990;SDS011;22064;42.672;23.282;2023-10-09T11:06:59;1.65;;;1.15;;
35990;SDS011;22064;42.672;23.282;2023-10-09T11:09:55;2.28;;;1.38;;
35990;SDS011;22064;42.672;23.282;2023-10-09T11:12:47;4.32;;;1.83;;
35990;SDS011;22064;42.672;23.282;2023-10-09T11:15:39;3.88;;;1.45;;
35990;SDS011;22064;42.672;23.282;2023-10-09T11:18:33;2.65;;;1.70;;
35990;SDS011;22064;42.672;23.282;2023-10-09T11:21:32;4.15;;;1.40;;
35990;SDS011;22064;42.672;23.282;2023-10-09T11:24:27;2.72;;;1.23;;
35990;SDS011;22064;42.672;23.282;2023-10-09T11:27:20;4.28;;;2.05;;
35990;SDS011;22064;42.672;23.282;2023-10-09T11:30:11;5.63;;;2.20;;
35990;SDS011;22064;42.672;23.282;2023-10-09T11:33:09;2.78;;;1.15;;
35990;SDS011;22064;42.672;23.282;2023-10-09T11:36:00;4.93;;;1.63;;
35990;SDS011;22064;42.672;23.282;2023-10-09T11:38:48;6.20;;;2.13;;
35990;SDS011;22064;42.672;23.282;2023-10-09T11:41:39;7.80;;;2.95;;
35990;SDS011;22064;42.672;23.282;2023-10-09T11:44:40;5.95;;;3.53;;
35990;SDS011;22064;42.672;23.282;2023-10-09T11:47:34;5.93;;;2.80;;
35990;SDS011;22064;42.672;23.282;2023-10-09T11:50:21;4.72;;;2.30;;
35990;SDS011;22064;42.672;23.282;2023-10-09T11:54:03;4.18;;;1.55;;
35990;SDS011;22064;42.672;23.282;2023-10-09T11:56:50;2.72;;;1.33;;
35990;SDS011;22064;42.672;23.282;2023-10-09T11:59:41;5.28;;;1.95;;
35990;SDS011;22064;42.672;23.282;2023-10-09T12:02:29;1.92;;;1.42;;
35990;SDS011;22064;42.672;23.282;2023-10-09T12:05:17;2.58;;;1.45;;
35990;SDS011;22064;42.672;23.282;2023-10-09T12:08:05;4.35;;;1.77;;
35990;SDS011;22064;42.672;23.282;2023-10-09T12:10:55;3.15;;;1.20;;
35990;SDS011;22064;42.672;23.282;2023-10-09T12:13:42;2.97;;;1.40;;
35990;SDS011;22064;42.672;23.282;2023-10-09T12:16:29;3.20;;;1.38;;
35990;SDS011;22064;42.672;23.282;2023-10-09T12:19:19;4.20;;;1.20;;
35990;SDS011;22064;42.672;23.282;2023-10-09T12:22:07;3.45;;;1.50;;
35990;SDS011;22064;42.672;23.282;2023-10-09T12:25:03;4.07;;;1.38;;
35990;SDS011;22064;42.672;23.282;2023-10-09T12:27:50;4.88;;;1.58;;
35990;SDS011;22064;42.672;23.282;2023-10-09T12:30:46;3.53;;;1.65;;
35990;SDS011;22064;42.672;23.282;2023-10-09T12:33:37;3.28;;;1.20;;
35990;SDS011;22064;42.672;23.282;2023-10-09T12:36:28;2.45;;;1.23;;
35990;SDS011;22064;42.672;23.282;2023-10-09T12:39:16;3.13;;;1.15;;
35990;SDS011;22064;42.672;23.282;2023-10-09T12:42:10;2.10;;;1.30;;
35990;SDS011;22064;42.672;23.282;2023-10-09T12:45:00;3.17;;;1.33;;
35990;SDS011;22064;42.672;23.282;2023-10-09T12:47:56;4.72;;;1.23;;
35990;SDS011;22064;42.672;23.282;2023-10-09T12:50:46;3.17;;;1.38;;
35990;SDS011;22064;42.672;23.282;2023-10-09T12:53:40;2.55;;;1.33;;
35990;SDS011;22064;42.672;23.282;2023-10-09T12:56:28;3.80;;;1.08;;
35990;SDS011;22064;42.672;23.282;2023-10-09T12:59:23;2.25;;;1.38;;
35990;SDS011;22064;42.672;23.282;2023-10-09T13:02:14;1.50;;;0.93;;
35990;SDS011;22064;42.672;23.282;2023-10-09T13:05:14;2.17;;;1.52;;
35990;SDS011;22064;42.672;23.282;2023-10-09T13:08:13;3.67;;;1.73;;
35990;SDS011;22064;42.672;23.282;2023-10-09T13:11:05;4.30;;;1.60;;
35990;SDS011;22064;42.672;23.282;2023-10-09T13:14:05;4.88;;;1.48;;
35990;SDS011;22064;42.672;23.282;2023-10-09T13:17:03;3.20;;;1.27;;
35990;SDS011;22064;42.672;23.282;2023-10-09T13:19:56;3.22;;;1.60;;
35990;SDS011;22064;42.672;23.282;2023-10-09T13:22:43;3.42;;;1.90;;
35990;SDS011;22064;42.672;23.282;2023-10-09T13:25:35;6.63;;;1.83;;
35990;SDS011;22064;42.672;23.282;2023-10-09T13:28:26;3.75;;;1.20;;
35990;SDS011;22064;42.672;23.282;2023-10-09T13:31:13;4.20;;;1.63;;
35990;SDS011;22064;42.672;23.282;2023-10-09T13:34:00;3.67;;;1.73;;
35990;SDS011;22064;42.672;23.282;2023-10-09T13:36:49;5.43;;;1.80;;
35990;SDS011;22064;42.672;23.282;2023-10-09T13:39:40;8.43;;;2.30;;
35990;SDS011;22064;42.672;23.282;2023-10-09T13:42:39;4.43;;;2.22;;
35990;SDS011;22064;42.672;23.282;2023-10-09T13:45:26;5.20;;;1.90;;
35990;SDS011;22064;42.672;23.282;2023-10-09T13:48:15;3.38;;;1.70;;
35990;SDS011;22064;42.672;23.282;2023-10-09T13:51:04;5.22;;;2.30;;
35990;SDS011;22064;42.672;23.282;2023-10-09T13:53:55;3.42;;;1.85;;
35990;SDS011;22064;42.672;23.282;2023-10-09T13:56:46;3.47;;;2.30;;
35990;SDS011;22064;42.672;23.282;2023-10-09T13:59:41;3.72;;;1.98;;
35990;SDS011;22064;42.672;23.282;2023-10-09T14:02:39;9.98;;;2.47;;
35990;SDS011;22064;42.672;23.282;2023-10-09T14:05:26;4.70;;;1.98;;
35990;SDS011;22064;42.672;23.282;2023-10-09T14:08:16;5.00;;;2.30;;
35990;SDS011;22064;42.672;23.282;2023-10-09T14:11:03;4.20;;;2.22;;
35990;SDS011;22064;42.672;23.282;2023-10-09T14:13:56;9.60;;;2.65;;
35990;SDS011;22064;42.672;23.282;2023-10-09T14:16:43;9.35;;;2.30;;
35990;SDS011;22064;42.672;23.282;2023-10-09T14:19:35;6.15;;;2.47;;
35990;SDS011;22064;42.672;23.282;2023-10-09T14:22:24;8.63;;;3.20;;
35990;SDS011;22064;42.672;23.282;2023-10-09T14:25:12;11.07;;;3.78;;
35990;SDS011;22064;42.672;23.282;2023-10-09T14:28:04;5.90;;;3.28;;
35990;SDS011;22064;42.672;23.282;2023-10-09T14:30:54;9.48;;;3.45;;
35990;SDS011;22064;42.672;23.282;2023-10-09T14:33:49;7.82;;;3.47;;
35990;SDS011;22064;42.672;23.282;2023-10-09T14:36:41;6.85;;;2.65;;
35990;SDS011;22064;42.672;23.282;2023-10-09T14:39:30;7.13;;;2.63;;
35990;SDS011;22064;42.672;23.282;2023-10-09T14:42:19;7.88;;;2.50;;
35990;SDS011;22064;42.672;23.282;2023-10-09T14:45:07;5.15;;;2.60;;
35990;SDS011;22064;42.672;23.282;2023-10-09T14:47:54;7.70;;;3.03;;
35990;SDS011;22064;42.672;23.282;2023-10-09T14:50:45;8.57;;;2.95;;
35990;SDS011;22064;42.672;23.282;2023-10-09T14:53:33;6.07;;;2.90;;
35990;SDS011;22064;42.672;23.282;2023-10-09T14:56:26;8.05;;;3.20;;
35990;SDS011;22064;42.672;23.282;2023-10-09T14:59:17;7.47;;;2.60;;
35990;SDS011;22064;42.672;23.282;2023-10-09T15:02:05;8.43;;;2.75;;
35990;SDS011;22064;42.672;23.282;2023-10-09T15:04:53;7.72;;;3.30;;
35990;SDS011;22064;42.672;23.282;2023-10-09T15:07:40;7.10;;;2.60;;
35990;SDS011;22064;42.672;23.282;2023-10-09T15:10:27;5.80;;;2.72;;
35990;SDS011;22064;42.672;23.282;2023-10-09T15:13:14;7.45;;;2.65;;
35990;SDS011;22064;42.672;23.282;2023-10-09T15:16:03;8.07;;;2.88;;
35990;SDS011;22064;42.672;23.282;2023-10-09T15:18:50;8.00;;;2.90;;
35990;SDS011;22064;42.672;23.282;2023-10-09T15:21:39;8.02;;;2.88;;
35990;SDS011;22064;42.672;23.282;2023-10-09T15:24:32;7.82;;;2.90;;
35990;SDS011;22064;42.672;23.282;2023-10-09T15:27:20;6.07;;;2.63;;
35990;SDS011;22064;42.672;23.282;2023-10-09T15:30:08;8.30;;;2.75;;
35990;SDS011;22064;42.672;23.282;2023-10-09T15:32:59;5.43;;;2.67;;
35990;SDS011;22064;42.672;23.282;2023-10-09T15:35:47;13.30;;;3.85;;
35990;SDS011;22064;42.672;23.282;2023-10-09T15:38:36;8.23;;;2.90;;
35990;SDS011;22064;42.672;23.282;2023-10-09T15:41:23;8.93;;;3.03;;
35990;SDS011;22064;42.672;23.282;2023-10-09T15:44:09;9.23;;;3.83;;
35990;SDS011;22064;42.672;23.282;2023-10-09T15:46:56;12.07;;;3.60;;
35990;SDS011;22064;42.672;23.282;2023-10-09T15:49:46;9.82;;;3.92;;
35990;SDS011;22064;42.672;23.282;2023-10-09T15:52:32;8.30;;;3.20;;
35990;SDS011;22064;42.672;23.282;2023-10-09T15:55:18;10.27;;;3.97;;
35990;SDS011;22064;42.672;23.282;2023-10-09T15:58:10;10.57;;;4.40;;
35990;SDS011;22064;42.672;23.282;2023-10-09T16:00:57;17.73;;;5.72;;
35990;SDS011;22064;42.672;23.282;2023-10-09T16:03:46;20.10;;;6.78;;
35990;SDS011;22064;42.672;23.282;2023-10-09T16:06:36;20.08;;;7.05;;
35990;SDS011;22064;42.672;23.282;2023-10-09T16:09:29;21.50;;;7.32;;
35990;SDS011;22064;42.672;23.282;2023-10-09T16:12:17;17.20;;;6.57;;
35990;SDS011;22064;42.672;23.282;2023-10-09T16:15:05;19.13;;;7.22;;
35990;SDS011;22064;42.672;23.282;2023-10-09T16:17:54;22.08;;;8.05;;
35990;SDS011;22064;42.672;23.282;2023-10-09T16:20:54;18.92;;;7.55;;
35990;SDS011;22064;42.672;23.282;2023-10-09T16:23:41;16.73;;;6.07;;
35990;SDS011;22064;42.672;23.282;2023-10-09T16:26:28;15.65;;;5.85;;
35990;SDS011;22064;42.672;23.282;2023-10-09T16:29:17;19.33;;;5.53;;
35990;SDS011;22064;42.672;23.282;2023-10-09T16:32:04;18.92;;;6.65;;
35990;SDS011;22064;42.672;23.282;2023-10-09T16:34:53;19.15;;;6.10;;
35990;SDS011;22064;42.672;23.282;2023-10-09T16:37:41;20.05;;;6.72;;
35990;SDS011;22064;42.672;23.282;2023-10-09T16:40:28;20.60;;;6.68;;
35990;SDS011;22064;42.672;23.282;2023-10-09T16:43:20;14.95;;;5.32;;
35990;SDS011;22064;42.672;23.282;2023-10-09T16:46:09;13.90;;;4.80;;
35990;SDS011;22064;42.672;23.282;2023-10-09T16:48:56;18.67;;;4.82;;
35990;SDS011;22064;42.672;23.282;2023-10-09T16:51:45;13.15;;;4.07;;
35990;SDS011;22064;42.672;23.282;2023-10-09T16:54:38;9.73;;;3.38;;
35990;SDS011;22064;42.672;23.282;2023-10-09T16:57:26;15.15;;;3.65;;
35990;SDS011;22064;42.672;23.282;2023-10-09T17:00:18;12.10;;;3.90;;
35990;SDS011;22064;42.672;23.282;2023-10-09T17:03:15;13.35;;;4.60;;
35990;SDS011;22064;42.672;23.282;2023-10-09T17:06:04;13.18;;;3.40;;
35990;SDS011;22064;42.672;23.282;2023-10-09T17:08:53;13.02;;;3.78;;
35990;SDS011;22064;42.672;23.282;2023-10-09T17:11:40;12.85;;;4.05;;
35990;SDS011;22064;42.672;23.282;2023-10-09T17:14:28;11.35;;;3.90;;
35990;SDS011;22064;42.672;23.282;2023-10-09T17:17:15;12.43;;;4.28;;
35990;SDS011;22064;42.672;23.282;2023-10-09T17:20:05;8.38;;;3.33;;